createdAt,value
2022-11-25T00:00:03.214Z,97981.41
2022-11-25T00:03:13.186Z,97971.84
2022-11-25T00:06:20.790Z,97965.22
2022-11-25T00:09:23.055Z,97962.94
2022-11-25T00:12:25.078Z,97961.06
2022-11-25T00:15:27.122Z,97962.09
2022-11-25T00:18:28.946Z,97968.75
2022-11-25T00:21:33.401Z,97974.66
2022-11-25T00:24:35.523Z,97972.91
2022-11-25T00:27:37.972Z,97979.00
2022-11-25T00:30:39.980Z,97980.34
2022-11-25T00:33:42.587Z,97978.69
2022-11-25T00:36:44.457Z,97980.25
2022-11-25T00:39:46.255Z,97986.59
2022-11-25T00:43:06.723Z,97986.78
2022-11-25T00:46:08.520Z,97985.09
2022-11-25T00:49:12.941Z,97993.41
2022-11-25T00:52:17.297Z,97996.09
2022-11-25T00:55:19.288Z,98003.38
2022-11-25T00:58:21.757Z,98003.06
2022-11-25T01:01:24.907Z,98010.41
2022-11-25T01:04:27.267Z,98014.16
2022-11-25T01:07:29.039Z,98021.19
2022-11-25T01:10:30.973Z,98019.13
2022-11-25T01:13:35.096Z,98021.13
2022-11-25T01:16:37.485Z,98024.13
2022-11-25T01:19:42.322Z,98027.38
2022-11-25T01:22:44.205Z,98031.41
2022-11-25T01:25:45.930Z,98031.47
2022-11-25T01:28:48.289Z,98037.22
2022-11-25T01:31:50.425Z,98035.91
2022-11-25T01:34:55.122Z,98029.16
2022-11-25T01:37:56.989Z,98030.88
2022-11-25T01:40:59.928Z,98037.72
2022-11-25T01:44:07.348Z,98035.78
2022-11-25T01:47:26.466Z,98035.78
2022-11-25T01:50:29.047Z,98040.31
2022-11-25T01:53:30.989Z,98042.91
2022-11-25T01:56:38.592Z,98039.31
2022-11-25T01:59:45.249Z,98047.31
2022-11-25T02:02:49.825Z,98053.06
2022-11-25T02:05:58.067Z,98058.13
2022-11-25T02:09:04.496Z,98054.28
2022-11-25T02:12:06.916Z,98051.72
2022-11-25T02:15:09.126Z,98059.28
2022-11-25T02:18:12.785Z,98063.75
2022-11-25T02:21:18.571Z,98064.69
2022-11-25T02:24:30.252Z,98064.13
2022-11-25T02:27:32.668Z,98070.28
2022-11-25T02:30:34.895Z,98067.63
2022-11-25T02:33:37.578Z,98060.66
2022-11-25T02:36:39.571Z,98067.06
2022-11-25T02:39:42.140Z,98067.84
2022-11-25T02:42:45.141Z,98073.16
2022-11-25T02:46:02.002Z,98078.28
2022-11-25T02:49:11.388Z,98073.38
2022-11-25T02:52:16.615Z,98087.44
2022-11-25T02:55:18.915Z,98090.03
2022-11-25T02:58:21.572Z,98081.50
2022-11-25T03:01:24.120Z,98074.69
2022-11-25T03:04:25.938Z,98076.44
2022-11-25T03:07:27.838Z,98073.81
2022-11-25T03:10:30.424Z,98077.88
2022-11-25T03:13:34.499Z,98077.88
2022-11-25T03:16:37.557Z,98075.25
2022-11-25T03:19:39.811Z,98071.94
2022-11-25T03:22:45.360Z,98085.44
2022-11-25T03:25:47.175Z,98087.75
2022-11-25T03:28:49.139Z,98093.31
2022-11-25T03:31:51.422Z,98086.66
2022-11-25T03:34:55.450Z,98102.66
2022-11-25T03:37:57.630Z,98098.88
2022-11-25T03:40:59.641Z,98100.25
2022-11-25T03:44:01.918Z,98115.59
2022-11-25T03:47:04.427Z,98106.72
2022-11-25T03:50:07.194Z,98107.09
2022-11-25T03:53:09.365Z,98103.03
2022-11-25T03:56:12.864Z,98112.38
2022-11-25T03:59:15.039Z,98113.09
2022-11-25T04:02:16.912Z,98108.75
2022-11-25T04:05:18.889Z,98109.66
2022-11-25T04:08:21.520Z,98104.47
2022-11-25T04:11:43.859Z,98108.75
2022-11-25T04:14:46.692Z,98118.56
2022-11-25T04:17:48.565Z,98106.78
2022-11-25T04:20:50.913Z,98107.81
2022-11-25T04:23:52.903Z,98126.03
2022-11-25T04:26:55.928Z,98124.47
2022-11-25T04:29:58.374Z,98127.34
2022-11-25T04:33:01.496Z,98121.50
2022-11-25T04:36:04.256Z,98129.81
2022-11-25T04:39:06.492Z,98129.44
2022-11-25T04:42:28.927Z,98117.88
2022-11-25T04:45:51.504Z,98116.22
2022-11-25T04:48:55.903Z,98113.63
2022-11-25T04:51:57.937Z,98124.09
2022-11-25T04:55:00.564Z,98139.97
2022-11-25T04:58:02.995Z,98133.97
2022-11-25T05:01:07.837Z,98139.44
2022-11-25T05:04:10.514Z,98138.50
2022-11-25T05:07:13.166Z,98148.22
2022-11-25T05:10:16.295Z,98149.59
2022-11-25T05:13:22.018Z,98152.00
2022-11-25T05:16:23.971Z,98155.31
2022-11-25T05:19:27.137Z,98153.47
2022-11-25T05:22:31.300Z,98162.53
2022-11-25T05:25:33.481Z,98170.22
2022-11-25T05:28:57.720Z,98167.56
2022-11-25T05:31:59.847Z,98166.97
2022-11-25T05:35:02.553Z,98173.81
2022-11-25T05:38:04.621Z,98161.16
2022-11-25T05:41:08.526Z,98159.03
2022-11-25T05:44:10.726Z,98164.91
2022-11-25T05:47:13.518Z,98154.41
2022-11-25T05:50:16.703Z,98158.91
2022-11-25T05:53:37.942Z,98169.38
2022-11-25T05:56:40.266Z,98162.09
2022-11-25T05:59:42.742Z,98178.34
2022-11-25T06:02:51.267Z,98178.72
2022-11-25T06:05:56.869Z,98178.25
2022-11-25T06:08:59.126Z,98185.78
2022-11-25T06:12:01.173Z,98191.78
2022-11-25T06:15:04.305Z,98186.69
2022-11-25T06:18:06.522Z,98205.91
2022-11-25T06:21:11.087Z,98204.34
2022-11-25T06:24:12.965Z,98199.44
2022-11-25T06:27:17.664Z,98202.41
2022-11-25T06:30:19.738Z,98202.53
2022-11-25T06:33:34.472Z,98218.41
2022-11-25T06:36:38.545Z,98219.53
2022-11-25T06:39:40.623Z,98218.25
2022-11-25T06:42:44.022Z,98219.72
2022-11-25T06:45:46.395Z,98218.41
2022-11-25T06:48:48.764Z,98211.03
2022-11-25T06:51:51.272Z,98218.22
2022-11-25T06:54:54.466Z,98208.50
2022-11-25T06:58:13.920Z,98222.28
2022-11-25T07:01:20.593Z,98225.31
2022-11-25T07:04:22.927Z,98227.91
2022-11-25T07:07:25.297Z,98230.44
2022-11-25T07:10:27.589Z,98238.19
2022-11-25T07:13:29.694Z,98229.63
2022-11-25T07:16:32.897Z,98233.38
2022-11-25T07:19:36.009Z,98236.50
2022-11-25T07:22:38.031Z,98232.41
2022-11-25T07:25:40.213Z,98243.34
2022-11-25T07:28:42.677Z,98243.03
2022-11-25T07:31:46.137Z,98239.44
2022-11-25T07:34:50.721Z,98241.69
2022-11-25T07:37:53.915Z,98251.94
2022-11-25T07:40:56.127Z,98268.81
2022-11-25T07:44:01.202Z,98263.16
2022-11-25T07:47:04.745Z,98258.03
2022-11-25T07:50:07.540Z,98266.81
2022-11-25T07:53:09.354Z,98274.03
2022-11-25T07:56:11.189Z,98276.19
2022-11-25T07:59:15.613Z,98281.00
2022-11-25T08:02:17.453Z,98278.22
2022-11-25T08:05:19.425Z,98282.19
2022-11-25T08:08:21.189Z,98290.56
2022-11-25T08:11:28.755Z,98288.09
2022-11-25T08:14:30.600Z,98288.06
2022-11-25T08:17:32.542Z,98294.97
2022-11-25T08:20:34.648Z,98290.03
2022-11-25T08:23:38.033Z,98301.25
2022-11-25T08:26:39.951Z,98299.97
2022-11-25T08:29:42.040Z,98300.72
2022-11-25T08:32:43.976Z,98294.72
2022-11-25T08:35:53.631Z,98305.19
2022-11-25T08:38:59.949Z,98299.25
2022-11-25T08:42:06.813Z,98302.69
2022-11-25T08:45:09.593Z,98297.13
2022-11-25T08:48:11.502Z,98307.50
2022-11-25T08:51:17.474Z,98305.78
2022-11-25T08:54:19.242Z,98311.72
2022-11-25T08:57:21.049Z,98313.19
2022-11-25T09:00:23.378Z,98314.59
2022-11-25T09:03:25.356Z,98307.94
2022-11-25T09:06:28.866Z,98322.03
2022-11-25T09:09:31.376Z,98323.41
2022-11-25T09:12:33.345Z,98321.53
2022-11-25T09:15:37.962Z,98328.88
2022-11-25T09:18:40.152Z,98330.63
2022-11-25T09:21:43.859Z,98332.25
2022-11-25T09:24:46.414Z,98330.13
2022-11-25T09:27:48.445Z,98329.75
2022-11-25T09:30:50.661Z,98334.97
2022-11-25T09:33:53.266Z,98328.88
2022-11-25T09:36:55.347Z,98329.53
2022-11-25T09:39:57.356Z,98329.84
2022-11-25T09:43:22.450Z,98321.22
2022-11-25T09:46:43.407Z,98322.16
2022-11-25T09:49:53.487Z,98319.16
2022-11-25T09:53:34.674Z,98320.72
2022-11-25T09:57:06.998Z,98329.78
2022-11-25T10:00:16.336Z,98331.00
2022-11-25T10:03:33.859Z,98328.72
2022-11-25T10:06:48.411Z,98333.53
2022-11-25T10:09:54.038Z,98320.34
2022-11-25T10:12:57.491Z,98330.34
2022-11-25T10:16:02.448Z,98327.09
2022-11-25T10:19:25.198Z,98326.56
2022-11-25T10:22:30.375Z,98324.31
2022-11-25T10:25:37.908Z,98317.16
2022-11-25T10:28:42.254Z,98324.13
2022-11-25T10:31:44.992Z,98327.75
2022-11-25T10:34:51.725Z,98330.78
2022-11-25T10:37:55.421Z,98328.66
2022-11-25T10:40:57.777Z,98324.03
2022-11-25T10:43:59.780Z,98326.75
2022-11-25T10:47:14.616Z,98319.09
2022-11-25T10:50:23.199Z,98320.28
2022-11-25T10:53:26.785Z,98319.84
2022-11-25T10:56:29.056Z,98319.81
2022-11-25T10:59:36.792Z,98324.31
2022-11-25T11:02:39.722Z,98324.63
2022-11-25T11:05:50.589Z,98318.63
2022-11-25T11:08:52.589Z,98310.63
2022-11-25T11:11:54.690Z,98308.13
2022-11-25T11:15:26.404Z,98303.16
2022-11-25T11:18:39.346Z,98307.97
2022-11-25T11:21:41.929Z,98310.81
2022-11-25T11:24:44.073Z,98308.44
2022-11-25T11:27:46.806Z,98311.16
2022-11-25T11:30:57.358Z,98308.56
2022-11-25T11:34:22.477Z,98310.56
2022-11-25T11:37:46.614Z,98306.53
2022-11-25T11:40:53.124Z,98317.22
2022-11-25T11:43:58.073Z,98311.75
2022-11-25T11:47:18.758Z,98311.75
2022-11-25T11:50:26.744Z,98309.28
2022-11-25T11:53:34.799Z,98313.66
2022-11-25T11:56:43.374Z,98307.97
2022-11-25T11:59:50.292Z,98310.34
2022-11-25T12:03:19.845Z,98310.09
2022-11-25T12:06:23.178Z,98316.84
2022-11-25T12:09:28.518Z,98309.50
2022-11-25T12:12:41.019Z,98313.66
2022-11-25T12:15:48.965Z,98302.63
2022-11-25T12:18:52.837Z,98306.28
2022-11-25T12:22:05.417Z,98304.41
2022-11-25T12:25:19.375Z,98317.19
2022-11-25T12:28:36.933Z,98312.94
2022-11-25T12:31:45.757Z,98308.31
2022-11-25T12:34:56.484Z,98314.59
2022-11-25T12:38:21.681Z,98309.38
2022-11-25T12:41:44.299Z,98307.91
2022-11-25T12:45:10.508Z,98306.84
2022-11-25T12:48:13.101Z,98301.25
2022-11-25T12:51:36.942Z,98301.63
2022-11-25T12:54:52.736Z,98299.88
2022-11-25T12:58:41.363Z,98300.47
2022-11-25T13:02:02.251Z,98302.59
2022-11-25T13:05:40.202Z,98312.91
2022-11-25T13:08:58.282Z,98309.13
2022-11-25T13:12:02.561Z,98312.69
2022-11-25T13:15:27.282Z,98304.88
2022-11-25T13:18:31.928Z,98309.41
2022-11-25T13:21:34.575Z,98307.97
2022-11-25T13:24:43.399Z,98304.19
2022-11-25T13:27:45.935Z,98305.69
2022-11-25T13:30:51.712Z,98310.56
2022-11-25T13:34:04.151Z,98308.91
2022-11-25T13:37:36.467Z,98315.53
2022-11-25T13:40:39.792Z,98320.19
2022-11-25T13:43:53.977Z,98308.66
2022-11-25T13:46:58.473Z,98310.09
2022-11-25T13:50:24.515Z,98310.31
2022-11-25T13:53:35.215Z,98313.53
2022-11-25T13:56:37.658Z,98314.47
2022-11-25T13:59:42.690Z,98314.81
2022-11-25T14:02:46.629Z,98330.09
2022-11-25T14:06:28.583Z,98332.13
2022-11-25T14:09:48.444Z,98330.69
2022-11-25T14:13:02.866Z,98341.81
2022-11-25T14:16:42.120Z,98334.22
2022-11-25T14:19:55.707Z,98342.63
2022-11-25T14:23:04.195Z,98342.53
2022-11-25T14:26:34.155Z,98339.44
2022-11-25T14:29:40.400Z,98347.50
2022-11-25T14:32:53.692Z,98347.50
2022-11-25T14:36:02.185Z,98342.19
2022-11-25T14:39:14.324Z,98343.75
2022-11-25T14:42:20.001Z,98341.59
2022-11-25T14:45:27.292Z,98337.84
2022-11-25T14:48:29.374Z,98331.75
2022-11-25T14:51:35.852Z,98339.94
2022-11-25T14:54:44.811Z,98341.22
2022-11-25T14:57:47.123Z,98339.81
2022-11-25T15:00:53.382Z,98348.38
2022-11-25T15:04:14.264Z,98347.03
2022-11-25T15:07:20.147Z,98344.34
2022-11-25T15:10:43.130Z,98349.91
2022-11-25T15:13:53.224Z,98352.28
2022-11-25T15:16:56.494Z,98346.13
2022-11-25T15:20:04.447Z,98344.47
2022-11-25T15:23:12.949Z,98344.94
2022-11-25T15:26:20.755Z,98352.63
2022-11-25T15:29:23.241Z,98351.09
2022-11-25T15:32:30.330Z,98347.63
2022-11-25T15:35:32.509Z,98345.16
2022-11-25T15:38:36.092Z,98355.81
2022-11-25T15:41:43.797Z,98346.34
2022-11-25T15:44:51.909Z,98356.28
2022-11-25T15:47:53.882Z,98352.97
2022-11-25T15:51:17.991Z,98347.03
2022-11-25T15:54:30.641Z,98349.97
2022-11-25T15:57:36.971Z,98355.91
2022-11-25T16:00:41.884Z,98355.06
2022-11-25T16:03:45.209Z,98362.38
2022-11-25T16:06:56.571Z,98359.47
2022-11-25T16:09:58.549Z,98366.09
2022-11-25T16:13:26.043Z,98371.16
2022-11-25T16:16:29.562Z,98370.34
2022-11-25T16:19:39.932Z,98369.63
2022-11-25T16:22:42.652Z,98376.97
2022-11-25T16:25:58.369Z,98379.72
2022-11-25T16:29:01.498Z,98379.72
2022-11-25T16:32:15.319Z,98381.06
2022-11-25T16:35:23.766Z,98376.81
2022-11-25T16:38:27.094Z,98379.22
2022-11-25T16:41:30.122Z,98379.13
2022-11-25T16:44:35.039Z,98389.88
2022-11-25T16:47:37.156Z,98392.91
2022-11-25T16:50:39.454Z,98395.75
2022-11-25T16:53:41.999Z,98389.06
2022-11-25T16:56:45.326Z,98391.66
2022-11-25T16:59:52.114Z,98394.28
2022-11-25T17:02:58.538Z,98406.09
2022-11-25T17:06:00.855Z,98399.44
2022-11-25T17:09:03.499Z,98408.91
2022-11-25T17:12:11.808Z,98410.09
2022-11-25T17:15:17.324Z,98412.69
2022-11-25T17:18:20.310Z,98416.97
2022-11-25T17:21:28.531Z,98421.44
2022-11-25T17:24:30.586Z,98420.94
2022-11-25T17:27:33.560Z,98423.66
2022-11-25T17:30:36.548Z,98417.41
2022-11-25T17:33:39.114Z,98425.34
2022-11-25T17:36:41.424Z,98430.94
2022-11-25T17:39:44.091Z,98422.16
2022-11-25T17:42:48.928Z,98432.72
2022-11-25T17:45:51.321Z,98425.94
2022-11-25T17:48:54.441Z,98426.78
2022-11-25T17:51:56.920Z,98437.00
2022-11-25T17:54:59.630Z,98437.75
2022-11-25T17:58:02.050Z,98438.66
2022-11-25T18:01:04.985Z,98446.88
2022-11-25T18:04:35.406Z,98438.22
2022-11-25T18:07:38.189Z,98453.25
2022-11-25T18:10:40.895Z,98453.47
2022-11-25T18:13:45.391Z,98448.88
2022-11-25T18:16:49.090Z,98452.81
2022-11-25T18:19:55.231Z,98442.78
2022-11-25T18:22:58.607Z,98455.09
2022-11-25T18:26:01.918Z,98463.63
2022-11-25T18:29:04.939Z,98467.06
2022-11-25T18:32:10.350Z,98467.84
2022-11-25T18:35:32.692Z,98481.81
2022-11-25T18:38:39.799Z,98473.28
2022-11-25T18:41:43.007Z,98477.03
2022-11-25T18:44:45.550Z,98475.56
2022-11-25T18:47:51.385Z,98479.34
2022-11-25T18:50:58.476Z,98472.75
2022-11-25T18:54:00.799Z,98473.91
2022-11-25T18:57:03.315Z,98471.63
2022-11-25T19:00:41.056Z,98474.34
2022-11-25T19:03:34.964Z,98476.50
2022-11-25T19:06:39.622Z,98477.03
2022-11-25T19:09:41.921Z,98475.56
2022-11-25T19:12:49.083Z,98482.47
2022-11-25T19:15:51.396Z,98482.78
2022-11-25T19:18:54.142Z,98487.50
2022-11-25T19:21:56.700Z,98486.47
2022-11-25T19:24:59.904Z,98489.06
2022-11-25T19:28:03.232Z,98491.13
2022-11-25T19:31:07.289Z,98484.59
2022-11-25T19:34:17.073Z,98497.47
2022-11-25T19:37:24.308Z,98490.00
2022-11-25T19:40:39.010Z,98490.38
2022-11-25T19:43:42.203Z,98498.72
2022-11-25T19:47:13.660Z,98509.88
2022-11-25T19:50:17.736Z,98524.88
2022-11-25T19:53:24.289Z,98529.47
2022-11-25T19:56:27.679Z,98525.81
2022-11-25T19:59:29.874Z,98532.44
2022-11-25T20:02:32.300Z,98523.09
2022-11-25T20:05:37.852Z,98535.47
2022-11-25T20:08:40.559Z,98539.91
2022-11-25T20:11:46.368Z,98535.09
2022-11-25T20:14:50.657Z,98540.28
2022-11-25T20:17:56.631Z,98541.59
2022-11-25T20:21:01.834Z,98542.44
2022-11-25T20:24:09.453Z,98545.50
2022-11-25T20:27:13.038Z,98547.34
2022-11-25T20:30:29.324Z,98539.75
2022-11-25T20:33:31.439Z,98536.13
2022-11-25T20:36:34.003Z,98543.00
2022-11-25T20:39:36.131Z,98542.91
2022-11-25T20:42:38.083Z,98540.88
2022-11-25T20:45:40.336Z,98531.22
2022-11-25T20:48:43.016Z,98536.59
2022-11-25T20:51:48.313Z,98536.28
2022-11-25T20:54:50.965Z,98542.47
2022-11-25T20:57:53.755Z,98538.88
2022-11-25T21:00:57.709Z,98553.78
2022-11-25T21:04:00.326Z,98549.13
2022-11-25T21:07:02.353Z,98554.81
2022-11-25T21:10:17.947Z,98555.81
2022-11-25T21:13:30.390Z,98566.69
2022-11-25T21:16:32.334Z,98565.44
2022-11-25T21:19:34.934Z,98555.97
2022-11-25T21:22:41.298Z,98558.47
2022-11-25T21:25:43.746Z,98564.91
2022-11-25T21:28:47.618Z,98570.03
2022-11-25T21:31:50.231Z,98574.94
2022-11-25T21:34:52.962Z,98581.66
2022-11-25T21:37:55.137Z,98588.81
2022-11-25T21:40:58.651Z,98599.06
2022-11-25T21:44:01.218Z,98594.44
2022-11-25T21:47:19.507Z,98594.19
2022-11-25T21:50:22.297Z,98594.78
2022-11-25T21:53:24.847Z,98609.84
2022-11-25T21:56:28.619Z,98601.97
2022-11-25T21:59:31.166Z,98600.97
2022-11-25T22:02:33.349Z,98604.81
2022-11-25T22:05:35.528Z,98605.66
2022-11-25T22:08:37.584Z,98603.88
2022-11-25T22:11:42.303Z,98606.38
2022-11-25T22:14:44.391Z,98607.31
2022-11-25T22:17:57.288Z,98605.53
2022-11-25T22:20:59.772Z,98608.13
2022-11-25T22:24:01.671Z,98615.91
2022-11-25T22:27:06.897Z,98609.72
2022-11-25T22:30:18.249Z,98614.13
2022-11-25T22:33:30.248Z,98617.53
2022-11-25T22:36:34.843Z,98625.31
2022-11-25T22:39:36.646Z,98620.38
2022-11-25T22:42:39.371Z,98618.25
2022-11-25T22:45:41.342Z,98625.59
2022-11-25T22:48:43.652Z,98628.06
2022-11-25T22:51:45.627Z,98632.31
2022-11-25T22:54:48.213Z,98635.97
2022-11-25T22:57:51.855Z,98630.34
2022-11-25T23:00:55.430Z,98637.97
2022-11-25T23:03:57.769Z,98643.13
2022-11-25T23:07:00.098Z,98634.03
2022-11-25T23:10:02.039Z,98641.97
2022-11-25T23:13:03.925Z,98639.50
2022-11-25T23:16:06.222Z,98641.16
2022-11-25T23:19:16.949Z,98642.16
2022-11-25T23:22:19.402Z,98647.06
2022-11-25T23:25:22.521Z,98643.09
2022-11-25T23:28:25.454Z,98646.34
2022-11-25T23:31:27.508Z,98644.81
2022-11-25T23:34:29.643Z,98643.56
2022-11-25T23:37:32.096Z,98642.06
2022-11-25T23:40:34.343Z,98648.81
2022-11-25T23:43:36.467Z,98655.09
2022-11-25T23:46:38.479Z,98651.66
2022-11-25T23:49:44.219Z,98657.44
2022-11-25T23:52:46.216Z,98655.63
2022-11-25T23:55:50.561Z,98653.97
2022-11-25T23:58:52.462Z,98662.00
